Time;durP1;ratioP1;P1;durP2;ratioP2;P2;SDS_P1;SDS_P2;PMS_P1;PMS_P2;Temp;Humidity;BMP_temperature;BMP_pressure;BME280_temperature;BME280_humidity;BME280_pressure;Samples;Min_cycle;Max_cycle;Signal;HPM_P1;HPM_P2
2022/07/19 00:01:41;;;;;;;11.25;4.18;;;23.90;93.20;;;;;;5084511;28;20030;-73
2022/07/19 00:04:07;;;;;;;7.90;4.78;;;23.90;93.40;;;;;;5083366;28;20028;-73
2022/07/19 00:06:33;;;;;;;4.88;3.70;;;23.90;93.80;;;;;;5092945;28;20381;-73
2022/07/19 00:08:59;;;;;;;8.48;4.03;;;23.90;93.50;;;;;;5089762;28;20029;-73
2022/07/19 00:11:25;;;;;;;7.90;4.30;;;23.80;94.20;;;;;;5086463;28;20092;-73
2022/07/19 00:13:51;;;;;;;7.72;4.45;;;23.70;94.60;;;;;;5079202;28;20112;-73
2022/07/19 00:16:16;;;;;;;5.18;4.10;;;23.70;94.10;;;;;;5083945;28;20020;-73
2022/07/19 00:18:43;;;;;;;8.30;3.78;;;23.50;94.70;;;;;;5083594;28;20465;-73
2022/07/19 00:21:08;;;;;;;7.18;4.75;;;23.50;94.90;;;;;;5089457;28;20612;-73
2022/07/19 00:23:34;;;;;;;5.50;4.00;;;23.50;95.00;;;;;;5086034;28;20126;-73
2022/07/19 00:26:01;;;;;;;5.50;4.30;;;23.40;94.50;;;;;;5082894;28;20020;-73
2022/07/19 00:28:27;;;;;;;5.88;4.57;;;23.40;95.70;;;;;;5088671;28;20128;-73
2022/07/19 00:30:53;;;;;;;7.13;3.88;;;23.40;95.50;;;;;;5082353;28;20509;-72
2022/07/19 00:33:19;;;;;;;7.75;4.53;;;23.30;95.00;;;;;;5087692;28;20039;-73
2022/07/19 00:35:44;;;;;;;5.10;4.03;;;23.30;94.70;;;;;;5087805;28;20056;-73
2022/07/19 00:38:12;;;;;;;7.45;4.40;;;23.30;94.70;;;;;;5087714;28;20530;-73
2022/07/19 00:40:40;;;;;;;6.45;4.22;;;23.30;94.60;;;;;;5085034;28;20032;-73
2022/07/19 00:43:07;;;;;;;7.50;5.13;;;23.20;94.70;;;;;;5085986;28;20036;-73
2022/07/19 00:45:32;;;;;;;8.15;4.05;;;23.20;94.60;;;;;;5089417;28;20034;-73
2022/07/19 00:47:58;;;;;;;4.88;4.30;;;23.20;95.00;;;;;;5080361;28;20028;-73
2022/07/19 00:50:24;;;;;;;5.50;4.35;;;23.30;94.30;;;;;;5087948;28;20024;-73
2022/07/19 00:52:55;;;;;;;10.90;4.88;;;23.30;94.10;;;;;;5085510;28;20021;-72
2022/07/19 00:55:22;;;;;;;5.72;4.22;;;23.20;94.60;;;;;;5093498;28;20020;-73
2022/07/19 00:57:49;;;;;;;7.80;4.30;;;23.20;94.40;;;;;;5088165;28;20033;-73
2022/07/19 01:00:17;;;;;;;6.32;4.40;;;23.10;96.00;;;;;;5087363;28;20103;-73
2022/07/19 01:02:44;;;;;;;11.85;4.32;;;23.10;95.10;;;;;;5083469;28;20040;-73
2022/07/19 01:05:10;;;;;;;8.88;5.07;;;23.00;95.70;;;;;;5080639;28;20381;-73
2022/07/19 01:07:39;;;;;;;5.10;4.13;;;22.90;95.90;;;;;;5082979;28;20039;-73
2022/07/19 01:10:07;;;;;;;5.15;4.65;;;22.90;95.90;;;;;;5080468;28;20029;-72
2022/07/19 01:12:34;;;;;;;7.55;4.63;;;22.90;95.20;;;;;;5086504;28;20016;-70
2022/07/19 01:15:00;;;;;;;8.95;4.80;;;22.90;95.60;;;;;;5091130;28;20039;-73
2022/07/19 01:17:26;;;;;;;7.70;4.55;;;22.80;95.30;;;;;;5090131;28;20385;-73
2022/07/19 01:19:52;;;;;;;11.50;4.82;;;22.80;94.90;;;;;;5082191;28;20058;-73
2022/07/19 01:22:18;;;;;;;5.85;4.35;;;22.90;95.10;;;;;;5086380;28;20024;-73
2022/07/19 01:24:43;;;;;;;9.55;4.63;;;22.90;94.60;;;;;;5081945;28;20354;-72
2022/07/19 01:27:09;;;;;;;7.60;4.40;;;22.80;94.50;;;;;;5079079;28;20024;-73
2022/07/19 01:29:36;;;;;;;6.18;4.72;;;22.80;94.80;;;;;;5085873;28;20028;-72
2022/07/19 01:32:06;;;;;;;9.68;4.80;;;22.70;95.00;;;;;;5093471;28;20396;-72
2022/07/19 01:34:32;;;;;;;5.32;4.38;;;22.70;96.00;;;;;;5088607;28;20376;-73
2022/07/19 01:36:57;;;;;;;8.27;4.78;;;22.70;95.90;;;;;;5081594;28;20048;-73
2022/07/19 01:39:23;;;;;;;11.13;5.18;;;22.60;95.80;;;;;;5082643;28;20435;-71
2022/07/19 01:41:49;;;;;;;8.02;5.00;;;22.60;95.30;;;;;;5089242;28;20020;-72
2022/07/19 01:44:15;;;;;;;5.95;4.68;;;22.60;95.90;;;;;;5088940;28;20016;-71
2022/07/19 01:46:40;;;;;;;7.82;5.15;;;22.50;95.10;;;;;;5079288;28;20024;-73
2022/07/19 01:49:06;;;;;;;5.25;4.72;;;22.50;95.30;;;;;;5080850;28;20031;-72
2022/07/19 01:51:32;;;;;;;7.63;4.50;;;22.50;96.20;;;;;;5087784;28;20019;-73
2022/07/19 01:53:57;;;;;;;8.73;5.07;;;22.40;95.70;;;;;;5089385;28;20445;-73
2022/07/19 01:56:23;;;;;;;8.32;5.53;;;22.50;95.40;;;;;;5086330;28;20023;-72
2022/07/19 01:58:49;;;;;;;10.57;4.82;;;22.40;95.30;;;;;;5084186;28;20033;-73
2022/07/19 02:01:14;;;;;;;9.68;5.68;;;22.40;95.20;;;;;;5090104;28;20025;-73
2022/07/19 02:03:40;;;;;;;9.05;5.18;;;22.40;95.30;;;;;;5086962;28;20032;-72
2022/07/19 02:06:06;;;;;;;10.88;5.80;;;22.40;95.70;;;;;;5085928;28;20016;-73
2022/07/19 02:08:31;;;;;;;9.02;5.60;;;22.30;95.40;;;;;;5088525;28;20392;-73
2022/07/19 02:10:59;;;;;;;8.13;5.13;;;22.30;95.50;;;;;;5080314;28;20032;-72
2022/07/19 02:13:25;;;;;;;9.05;4.80;;;22.30;95.60;;;;;;5089409;28;20033;-73
2022/07/19 02:15:51;;;;;;;10.30;4.90;;;22.30;95.40;;;;;;5080829;28;20021;-73
2022/07/19 02:18:16;;;;;;;7.30;5.20;;;22.20;95.60;;;;;;5092031;28;20099;-72
2022/07/19 02:20:42;;;;;;;10.90;6.18;;;22.20;96.10;;;;;;5083049;28;20118;-72
2022/07/19 02:23:08;;;;;;;7.18;5.25;;;22.20;96.20;;;;;;5085737;28;20632;-73
2022/07/19 02:25:34;;;;;;;12.43;5.53;;;22.20;96.20;;;;;;5082518;28;20024;-73
2022/07/19 02:28:00;;;;;;;8.98;5.32;;;22.10;96.90;;;;;;5087366;28;20051;-72
2022/07/19 02:30:25;;;;;;;9.00;5.78;;;22.10;96.10;;;;;;5085204;28;20052;-73
2022/07/19 02:32:51;;;;;;;6.13;5.53;;;22.10;97.60;;;;;;5085527;28;20449;-72
2022/07/19 02:35:18;;;;;;;7.72;5.93;;;22.00;96.20;;;;;;5085642;28;20457;-72
2022/07/19 02:37:44;;;;;;;9.60;5.85;;;22.00;95.90;;;;;;5081534;28;20028;-72
2022/07/19 02:40:11;;;;;;;7.20;5.45;;;22.00;95.90;;;;;;5081259;28;20013;-72
2022/07/19 02:42:37;;;;;;;11.27;6.05;;;21.90;95.80;;;;;;5081816;28;20074;-71
2022/07/19 02:45:04;;;;;;;9.27;4.97;;;21.90;95.90;;;;;;5081668;28;20406;-72
2022/07/19 02:47:30;;;;;;;7.20;5.57;;;21.90;96.10;;;;;;5079419;28;20019;-72
2022/07/19 02:49:56;;;;;;;8.68;5.18;;;21.80;97.30;;;;;;5087576;28;20031;-70
2022/07/19 02:52:21;;;;;;;7.95;4.88;;;21.80;97.40;;;;;;5083130;28;20035;-73
2022/07/19 02:54:47;;;;;;;6.07;5.13;;;21.70;96.90;;;;;;5085200;28;20024;-73
2022/07/19 02:57:13;;;;;;;9.88;5.40;;;21.70;97.70;;;;;;5084813;28;20039;-70
2022/07/19 02:59:38;;;;;;;6.68;4.68;;;21.70;96.50;;;;;;5081757;28;20465;-71
2022/07/19 03:02:04;;;;;;;5.65;5.03;;;21.70;96.80;;;;;;5088968;28;20023;-71
2022/07/19 03:04:29;;;;;;;9.75;6.10;;;21.70;96.80;;;;;;5087709;28;20035;-71
2022/07/19 03:06:55;;;;;;;6.38;5.70;;;21.70;96.60;;;;;;5080808;28;20028;-72
2022/07/19 03:09:21;;;;;;;7.82;6.57;;;21.60;96.30;;;;;;5085267;28;20491;-72
2022/07/19 03:11:47;;;;;;;10.65;6.85;;;21.60;96.30;;;;;;5091572;28;20069;-71
2022/07/19 03:14:13;;;;;;;11.85;6.50;;;21.60;96.20;;;;;;5074538;28;20385;-72
2022/07/19 03:16:38;;;;;;;7.97;6.25;;;21.50;95.80;;;;;;5088073;28;20024;-72
2022/07/19 03:19:04;;;;;;;10.98;6.63;;;21.50;96.20;;;;;;5084726;28;20537;-72
2022/07/19 03:21:30;;;;;;;9.23;7.60;;;21.50;96.70;;;;;;5084765;28;20026;-72
2022/07/19 03:23:55;;;;;;;10.32;7.50;;;21.40;96.10;;;;;;5081815;28;20025;-72
2022/07/19 03:26:21;;;;;;;11.68;6.93;;;21.40;96.30;;;;;;5080414;28;20025;-71
2022/07/19 03:28:47;;;;;;;9.65;6.88;;;21.40;96.70;;;;;;5082794;28;20036;-71
2022/07/19 03:31:12;;;;;;;9.77;6.95;;;21.40;96.30;;;;;;5078906;28;20021;-72
2022/07/19 03:33:38;;;;;;;15.70;7.22;;;21.30;96.90;;;;;;5091078;28;20189;-73
2022/07/19 03:36:04;;;;;;;9.38;7.95;;;21.30;96.90;;;;;;5083430;28;20024;-71
2022/07/19 03:38:29;;;;;;;8.00;6.40;;;21.20;96.80;;;;;;5090415;28;20019;-72
2022/07/19 03:40:55;;;;;;;13.38;7.63;;;21.20;97.00;;;;;;5085585;28;20078;-71
2022/07/19 03:43:22;;;;;;;10.30;6.95;;;21.20;96.80;;;;;;5087089;28;20040;-71
2022/07/19 03:45:48;;;;;;;10.35;7.18;;;21.10;98.30;;;;;;5087456;28;20080;-71
2022/07/19 03:48:14;;;;;;;11.00;7.25;;;21.00;97.80;;;;;;5082299;28;20013;-72
2022/07/19 03:50:40;;;;;;;14.23;7.35;;;21.00;97.50;;;;;;5089887;28;20385;-71
2022/07/19 03:53:06;;;;;;;12.07;7.10;;;21.00;97.40;;;;;;5084392;28;20073;-72
2022/07/19 03:55:32;;;;;;;8.60;7.43;;;21.00;97.50;;;;;;5091929;28;20059;-72
2022/07/19 03:57:57;;;;;;;9.45;6.97;;;21.00;97.20;;;;;;5085536;28;20067;-71
2022/07/19 04:00:23;;;;;;;17.95;7.20;;;20.90;97.70;;;;;;5088464;28;20145;-71
2022/07/19 04:02:49;;;;;;;8.07;7.32;;;20.90;97.70;;;;;;5088993;28;20047;-72
2022/07/19 04:05:14;;;;;;;9.05;7.15;;;20.90;97.80;;;;;;5089356;28;20016;-72
2022/07/19 04:07:40;;;;;;;12.77;7.28;;;20.90;97.20;;;;;;5087765;28;20035;-72
2022/07/19 04:10:06;;;;;;;9.98;7.85;;;20.80;97.30;;;;;;5082106;28;20132;-72
2022/07/19 04:12:33;;;;;;;10.63;7.05;;;20.80;97.60;;;;;;5086836;28;20073;-72
2022/07/19 04:14:58;;;;;;;8.90;7.07;;;20.80;97.50;;;;;;5085547;28;20032;-72
2022/07/19 04:17:24;;;;;;;8.38;7.05;;;20.80;97.90;;;;;;5088639;28;20397;-72
2022/07/19 04:19:50;;;;;;;12.65;8.27;;;20.80;98.00;;;;;;5090623;28;20062;-72
2022/07/19 04:22:15;;;;;;;12.20;8.40;;;20.80;97.90;;;;;;5088713;28;20032;-72
2022/07/19 04:24:41;;;;;;;8.27;7.45;;;20.70;99.10;;;;;;5086517;28;20077;-73
2022/07/19 04:27:07;;;;;;;10.60;8.38;;;20.60;99.70;;;;;;5080047;28;20028;-72
2022/07/19 04:29:32;;;;;;;10.68;7.05;;;20.50;99.90;;;;;;5091418;28;20548;-73
2022/07/19 04:31:58;;;;;;;9.68;7.25;;;20.50;99.90;;;;;;5087785;28;20027;-71
2022/07/19 04:34:23;;;;;;;12.60;7.95;;;20.60;98.70;;;;;;5085758;28;20059;-72
2022/07/19 04:36:49;;;;;;;10.00;7.68;;;20.60;98.60;;;;;;5084293;28;20024;-73
2022/07/19 04:39:15;;;;;;;9.13;7.95;;;20.70;98.40;;;;;;5087005;28;20027;-72
2022/07/19 04:41:40;;;;;;;13.77;8.40;;;20.60;98.70;;;;;;5084871;28;20024;-73
2022/07/19 04:44:06;;;;;;;12.35;7.35;;;20.70;98.40;;;;;;5084203;28;20024;-72
2022/07/19 04:46:31;;;;;;;11.45;7.93;;;20.70;98.50;;;;;;5088728;28;20027;-70
2022/07/19 04:48:57;;;;;;;10.55;8.02;;;20.70;98.20;;;;;;5088559;28;20027;-71
2022/07/19 04:51:23;;;;;;;8.52;7.35;;;20.70;98.20;;;;;;5086138;28;20485;-72
2022/07/19 04:53:48;;;;;;;10.85;7.80;;;20.70;98.20;;;;;;5082540;28;20099;-72
2022/07/19 04:56:14;;;;;;;9.75;7.32;;;20.70;98.40;;;;;;5086626;28;20031;-72
2022/07/19 04:58:40;;;;;;;10.93;6.80;;;20.70;98.30;;;;;;5088256;27;20035;-71
2022/07/19 05:01:05;;;;;;;11.18;8.13;;;20.70;98.20;;;;;;5079441;28;20039;-72
2022/07/19 05:03:31;;;;;;;12.27;8.25;;;20.70;98.40;;;;;;5088589;28;20536;-72
2022/07/19 05:05:56;;;;;;;10.50;8.85;;;20.80;98.60;;;;;;5087666;28;20099;-72
2022/07/19 05:08:22;;;;;;;9.32;8.13;;;20.80;98.50;;;;;;5082844;28;20099;-69
2022/07/19 05:10:48;;;;;;;12.45;9.55;;;20.80;98.30;;;;;;5080379;28;20432;-70
2022/07/19 05:13:13;;;;;;;10.60;6.45;;;20.80;99.90;;;;;;5082394;28;20055;-70
2022/07/19 05:15:39;;;;;;;11.15;7.38;;;20.70;99.90;;;;;;5087371;28;20039;-70
2022/07/19 05:18:05;;;;;;;10.48;7.00;;;20.70;99.90;;;;;;5087788;28;20020;-70
2022/07/19 05:20:30;;;;;;;7.20;6.47;;;20.70;99.90;;;;;;5081350;28;20026;-69
2022/07/19 05:22:56;;;;;;;8.65;7.28;;;20.70;99.90;;;;;;5085317;28;20431;-70
2022/07/19 05:25:21;;;;;;;7.38;6.60;;;20.60;99.90;;;;;;5081465;28;20016;-70
2022/07/19 05:27:47;;;;;;;13.45;6.63;;;20.50;99.90;;;;;;5082821;28;20039;-70
2022/07/19 05:30:13;;;;;;;10.50;7.00;;;20.60;99.90;;;;;;5081185;28;20024;-70
2022/07/19 05:32:39;;;;;;;7.68;6.05;;;20.70;99.90;;;;;;5087088;28;20023;-70
2022/07/19 05:35:05;;;;;;;8.20;6.10;;;20.80;99.90;;;;;;5078578;28;20099;-70
2022/07/19 05:37:30;;;;;;;8.80;6.38;;;20.80;99.90;;;;;;5087238;28;20046;-70
2022/07/19 05:39:56;;;;;;;8.73;6.72;;;20.90;99.90;;;;;;5083897;28;20052;-70
2022/07/19 05:42:22;;;;;;;8.48;7.13;;;20.90;99.90;;;;;;5078231;28;20044;-70
2022/07/19 05:44:48;;;;;;;11.88;6.85;;;21.00;99.90;;;;;;5082324;28;20024;-70
2022/07/19 05:47:13;;;;;;;9.80;7.03;;;21.00;99.90;;;;;;5090449;28;20036;-70
2022/07/19 05:49:39;;;;;;;8.85;7.10;;;21.00;99.90;;;;;;5081252;28;20028;-71
2022/07/19 05:52:05;;;;;;;10.70;6.88;;;21.00;99.90;;;;;;5084146;28;20024;-69
2022/07/19 05:54:30;;;;;;;9.77;6.85;;;21.10;99.90;;;;;;5082990;28;20030;-69
2022/07/19 05:56:56;;;;;;;10.07;6.47;;;21.10;99.90;;;;;;5090620;28;20067;-70
2022/07/19 05:59:22;;;;;;;7.07;6.05;;;21.10;99.90;;;;;;5079139;28;20519;-70
2022/07/19 06:01:50;;;;;;;15.45;7.10;;;21.20;99.90;;;;;;5084009;28;20024;-70
2022/07/19 06:04:16;;;;;;;12.35;6.68;;;21.30;99.90;;;;;;5083967;28;20362;-70
2022/07/19 06:06:42;;;;;;;10.43;6.80;;;21.30;99.90;;;;;;5080311;28;20016;-69
2022/07/19 06:09:09;;;;;;;8.77;6.32;;;21.30;99.90;;;;;;5081188;28;20532;-70
2022/07/19 06:11:35;;;;;;;13.05;7.03;;;21.40;99.90;;;;;;5087764;28;20103;-69
2022/07/19 06:14:01;;;;;;;13.43;6.50;;;21.40;99.90;;;;;;5076949;28;20017;-70
2022/07/19 06:16:27;;;;;;;18.63;6.95;;;21.50;99.90;;;;;;5089735;28;20035;-70
2022/07/19 06:18:52;;;;;;;8.90;6.15;;;21.50;99.90;;;;;;5085237;28;20377;-71
2022/07/19 06:21:19;;;;;;;13.63;7.05;;;21.50;99.90;;;;;;5086619;28;20032;-69
2022/07/19 06:23:46;;;;;;;10.80;5.47;;;21.60;99.90;;;;;;5084783;28;20052;-69
2022/07/19 06:26:12;;;;;;;12.55;6.55;;;21.60;99.90;;;;;;5081904;28;20020;-71
2022/07/19 06:28:39;;;;;;;14.02;7.03;;;21.60;99.90;;;;;;5082288;28;20532;-72
2022/07/19 06:31:06;;;;;;;13.75;7.00;;;21.70;99.90;;;;;;5081315;28;20435;-72
2022/07/19 06:33:32;;;;;;;10.38;6.15;;;21.70;99.90;;;;;;5088006;28;20043;-72
2022/07/19 06:35:57;;;;;;;9.38;5.40;;;21.70;99.90;;;;;;5082157;28;20129;-72
2022/07/19 06:38:23;;;;;;;9.80;6.07;;;21.80;99.90;;;;;;5082404;28;20108;-72
2022/07/19 06:40:49;;;;;;;12.80;6.47;;;21.90;99.90;;;;;;5080198;28;20435;-72
2022/07/19 06:43:14;;;;;;;16.45;6.05;;;21.90;99.90;;;;;;5084297;28;20032;-69
2022/07/19 06:45:40;;;;;;;11.27;5.60;;;22.00;99.90;;;;;;5081875;28;20020;-71
2022/07/19 06:48:06;;;;;;;6.53;5.15;;;22.00;99.90;;;;;;5075931;28;20078;-74
2022/07/19 06:50:32;;;;;;;12.35;5.93;;;22.00;99.90;;;;;;5085844;28;20038;-72
2022/07/19 06:52:57;;;;;;;11.52;6.60;;;22.10;99.90;;;;;;5086074;28;20060;-71
2022/07/19 06:55:24;;;;;;;7.25;5.28;;;22.20;99.90;;;;;;5084561;28;20493;-71
2022/07/19 06:57:50;;;;;;;14.63;7.63;;;22.30;99.90;;;;;;5080022;28;20032;-72
2022/07/19 07:00:15;;;;;;;9.50;5.72;;;22.50;99.90;;;;;;5082380;28;20016;-73
2022/07/19 07:02:41;;;;;;;8.07;5.90;;;22.60;99.90;;;;;;5091422;28;20498;-72
2022/07/19 07:05:09;;;;;;;13.20;5.20;;;22.70;99.90;;;;;;5084482;28;20024;-72
2022/07/19 07:07:35;;;;;;;13.73;6.57;;;22.90;99.90;;;;;;5081199;28;20015;-72
2022/07/19 07:10:01;;;;;;;10.57;5.30;;;23.20;99.90;;;;;;5085672;28;20060;-71
2022/07/19 07:12:30;;;;;;;8.82;5.82;;;23.40;99.90;;;;;;5092291;28;20493;-72
2022/07/19 07:14:56;;;;;;;12.98;5.75;;;23.70;99.90;;;;;;5093740;28;20349;-70
2022/07/19 07:17:21;;;;;;;16.95;5.85;;;24.00;99.90;;;;;;5090331;28;20526;-71
2022/07/19 07:19:47;;;;;;;8.88;5.28;;;24.20;99.90;;;;;;5087963;28;20016;-73
2022/07/19 07:22:13;;;;;;;13.25;5.63;;;24.30;99.90;;;;;;5092357;28;20035;-72
2022/07/19 07:24:39;;;;;;;8.80;4.60;;;24.70;99.90;;;;;;5086951;27;20028;-70
2022/07/19 07:27:05;;;;;;;9.07;4.63;;;24.70;99.90;;;;;;5090618;28;20027;-72
2022/07/19 07:29:30;;;;;;;10.20;4.88;;;24.70;99.90;;;;;;5094008;28;20084;-72
2022/07/19 07:31:56;;;;;;;10.32;5.47;;;24.90;99.90;;;;;;5090322;28;20028;-72
2022/07/19 07:34:22;;;;;;;11.35;5.18;;;25.00;99.90;;;;;;5090696;28;20119;-73
2022/07/19 07:36:48;;;;;;;13.93;5.78;;;25.10;99.90;;;;;;5085325;28;20464;-73
2022/07/19 07:39:13;;;;;;;11.07;5.72;;;25.20;99.90;;;;;;5086995;28;20362;-73
2022/07/19 07:41:40;;;;;;;13.38;5.75;;;25.40;99.90;;;;;;5090565;28;20426;-72
2022/07/19 07:44:05;;;;;;;6.93;6.00;;;25.50;99.90;;;;;;5093858;28;20036;-72
2022/07/19 07:46:33;;;;;;;12.13;5.68;;;25.80;99.90;;;;;;5093140;28;20479;-73
2022/07/19 07:48:58;;;;;;;10.98;5.32;;;25.80;99.90;;;;;;5094292;28;20036;-72
2022/07/19 07:51:24;;;;;;;9.85;5.32;;;26.00;99.90;;;;;;5099708;28;20016;-72
2022/07/19 07:53:50;;;;;;;11.75;5.38;;;26.10;99.90;;;;;;5094792;28;20031;-73
2022/07/19 07:56:16;;;;;;;10.07;5.80;;;26.30;99.90;;;;;;5091874;28;20020;-74
2022/07/19 07:58:41;;;;;;;12.18;5.15;;;26.50;99.90;;;;;;5093138;28;20036;-73
2022/07/19 08:01:07;;;;;;;13.45;5.63;;;26.80;99.90;;;;;;5092648;28;20024;-72
2022/07/19 08:03:34;;;;;;;6.82;4.97;;;26.90;99.90;;;;;;5094849;28;20420;-72
2022/07/19 08:05:59;;;;;;;9.20;6.07;;;27.00;99.60;;;;;;5094178;28;20066;-72
2022/07/19 08:08:26;;;;;;;12.25;5.45;;;27.10;99.50;;;;;;5096939;28;20383;-72
2022/07/19 08:10:56;;;;;;;9.30;5.45;;;27.30;99.00;;;;;;5094471;28;20484;-73
2022/07/19 08:13:23;;;;;;;10.68;5.05;;;27.50;98.30;;;;;;5098165;28;20020;-73
2022/07/19 08:15:49;;;;;;;9.55;4.60;;;27.60;98.90;;;;;;5090602;28;20387;-74
2022/07/19 08:18:16;;;;;;;10.38;5.00;;;27.90;99.90;;;;;;5091813;28;20021;-73
2022/07/19 08:20:41;;;;;;;11.65;4.95;;;27.90;98.90;;;;;;5088840;28;20032;-73
2022/07/19 08:23:07;;;;;;;9.30;5.28;;;28.10;97.70;;;;;;5087298;28;20038;-73
2022/07/19 08:25:34;;;;;;;10.90;4.38;;;28.20;97.70;;;;;;5094076;28;20028;-72
2022/07/19 08:28:03;;;;;;;10.25;4.40;;;28.30;97.80;;;;;;5086316;28;20457;-73
2022/07/19 08:30:29;;;;;;;10.50;4.35;;;28.50;99.90;;;;;;5083340;28;20608;-74
2022/07/19 08:32:54;;;;;;;19.30;4.88;;;28.60;99.50;;;;;;5086484;28;20070;-74
2022/07/19 08:35:20;;;;;;;7.32;4.20;;;28.80;96.70;;;;;;5087970;28;20061;-74
2022/07/19 08:37:46;;;;;;;12.80;4.80;;;29.00;96.80;;;;;;5088990;28;20072;-73
2022/07/19 08:40:12;;;;;;;9.80;4.22;;;29.00;95.60;;;;;;5085226;28;20055;-73
2022/07/19 08:42:38;;;;;;;9.25;4.18;;;29.20;96.20;;;;;;5089342;28;20431;-71
2022/07/19 08:45:07;;;;;;;5.10;3.63;;;29.30;97.70;;;;;;5090023;28;20027;-73
2022/07/19 08:47:34;;;;;;;12.45;3.78;;;29.50;99.70;;;;;;5089660;28;20098;-74
2022/07/19 08:50:03;;;;;;;8.80;4.65;;;29.70;96.70;;;;;;5083097;28;20012;-74
2022/07/19 08:52:28;;;;;;;7.25;4.53;;;29.90;94.50;;;;;;5087657;28;20016;-73
2022/07/19 08:54:56;;;;;;;10.57;4.03;;;30.00;99.10;;;;;;5085467;28;20400;-74
2022/07/19 09:00:30;;;;;;;4.15;3.72;;;30.30;98.40;;;;;;5029939;28;20486;-73
2022/07/19 09:03:03;;;;;;;9.57;4.18;;;30.40;93.60;;;;;;5031262;28;20073;-73
2022/07/19 09:05:30;;;;;;;6.85;3.60;;;30.60;96.80;;;;;;5061153;28;20076;-74
2022/07/19 09:08:07;;;;;;;6.90;3.42;;;30.70;93.30;;;;;;5084457;28;20109;-73
2022/07/19 09:10:34;;;;;;;7.22;3.80;;;30.90;90.50;;;;;;5081602;28;20024;-74
2022/07/19 09:13:09;;;;;;;6.15;3.00;;;31.10;90.10;;;;;;5093111;28;20028;-72
2022/07/19 09:15:51;;;;;;;5.50;3.30;;;31.20;89.30;;;;;;5086487;28;20031;-74
2022/07/19 09:18:21;;;;;;;6.82;3.30;;;31.40;88.60;;;;;;5084713;28;20458;-73
2022/07/19 09:20:50;;;;;;;7.68;3.22;;;31.50;90.80;;;;;;5090486;28;20020;-73
2022/07/19 09:23:16;;;;;;;4.00;3.28;;;31.70;84.60;;;;;;5088630;28;20020;-74
2022/07/19 09:25:50;;;;;;;6.35;3.30;;;31.80;85.20;;;;;;5090544;28;20035;-73
2022/07/19 09:28:17;;;;;;;7.63;3.40;;;32.00;82.90;;;;;;5083988;28;20025;-71
2022/07/19 09:30:46;;;;;;;6.28;3.05;;;32.30;76.80;;;;;;5088134;28;20619;-73
2022/07/19 09:33:15;;;;;;;6.75;3.10;;;32.50;82.00;;;;;;5086920;28;20446;-73
2022/07/19 09:35:56;;;;;;;7.05;3.17;;;32.40;86.90;;;;;;5091631;28;20101;-71
2022/07/19 09:38:29;;;;;;;6.78;2.90;;;32.50;82.90;;;;;;5085868;28;20162;-73
2022/07/19 09:41:09;;;;;;;8.43;3.03;;;32.60;78.30;;;;;;5085448;28;20072;-71
2022/07/19 09:43:54;;;;;;;6.03;3.10;;;32.80;75.90;;;;;;5084472;28;20094;-74
2022/07/19 09:46:48;;;;;;;6.03;3.60;;;32.90;73.40;;;;;;5089904;28;20028;-73
2022/07/19 09:49:16;;;;;;;8.23;3.05;;;33.10;72.90;;;;;;5084331;28;20489;-74
2022/07/19 09:51:46;;;;;;;3.20;2.92;;;33.30;73.70;;;;;;5086994;28;20084;-74
2022/07/19 09:54:17;;;;;;;5.22;3.47;;;33.40;85.20;;;;;;5086098;28;20321;-72
2022/07/19 09:56:45;;;;;;;4.72;2.80;;;33.60;70.80;;;;;;5088560;28;20081;-73
2022/07/19 09:59:11;;;;;;;6.68;3.08;;;33.70;72.50;;;;;;5087344;28;20012;-72
2022/07/19 10:01:38;;;;;;;8.10;3.20;;;33.90;70.20;;;;;;5092256;28;20035;-73
2022/07/19 10:04:14;;;;;;;9.27;3.33;;;34.10;75.60;;;;;;5086969;28;20043;-73
2022/07/19 10:06:42;;;;;;;5.13;2.92;;;34.10;70.20;;;;;;5086198;28;20035;-72
2022/07/19 10:09:10;;;;;;;4.75;2.92;;;34.10;70.00;;;;;;5087480;28;20370;-73
2022/07/19 10:11:37;;;;;;;5.53;2.97;;;34.30;70.60;;;;;;5096956;28;20035;-73
2022/07/19 10:14:03;;;;;;;5.45;2.88;;;34.40;66.80;;;;;;5080853;28;20008;-73
2022/07/19 10:17:16;;;;;;;4.75;2.90;;;34.50;64.90;;;;;;5089030;28;20035;-72
2022/07/19 10:19:42;;;;;;;7.25;2.97;;;34.60;64.20;;;;;;5082251;28;20089;-73
2022/07/19 10:22:14;;;;;;;7.50;3.40;;;34.80;70.50;;;;;;5086173;28;20020;-72
2022/07/19 10:25:09;;;;;;;6.43;2.80;;;34.80;68.20;;;;;;5081413;28;20218;-73
2022/07/19 10:27:38;;;;;;;5.53;3.13;;;34.90;70.10;;;;;;5084002;28;20059;-73
2022/07/19 10:30:10;;;;;;;5.68;3.20;;;35.10;69.00;;;;;;5084907;28;20037;-73
2022/07/19 10:32:36;;;;;;;4.50;3.10;;;35.10;69.90;;;;;;5094433;28;20027;-73
2022/07/19 10:35:27;;;;;;;7.93;3.42;;;35.30;72.50;;;;;;5076955;28;20471;-73
2022/07/19 10:38:02;;;;;;;6.95;3.67;;;35.30;73.30;;;;;;5085319;28;20051;-73
2022/07/19 10:40:41;;;;;;;6.90;3.13;;;35.40;73.20;;;;;;5101913;28;20461;-77
2022/07/19 10:43:12;;;;;;;6.45;3.38;;;35.50;73.90;;;;;;5090574;28;20098;-73
2022/07/19 10:45:41;;;;;;;4.40;2.90;;;35.70;71.80;;;;;;5088011;28;20031;-73
2022/07/19 10:48:12;;;;;;;8.82;3.50;;;35.70;69.60;;;;;;5083632;28;20077;-73
2022/07/19 10:50:57;;;;;;;5.13;2.80;;;35.80;70.50;;;;;;5089106;28;20381;-73
2022/07/19 10:53:40;;;;;;;5.88;3.40;;;35.80;70.30;;;;;;5089540;28;20329;-73
2022/07/19 10:56:24;;;;;;;6.32;2.67;;;35.90;71.30;;;;;;5082233;28;20119;-73
2022/07/19 10:58:57;;;;;;;5.72;2.92;;;36.00;70.00;;;;;;5084887;28;20096;-74
2022/07/19 11:01:24;;;;;;;8.05;3.03;;;36.20;68.10;;;;;;5082495;28;20386;-74
2022/07/19 11:03:53;;;;;;;6.38;3.00;;;36.10;63.70;;;;;;5087821;28;20040;-73
2022/07/19 11:06:24;;;;;;;8.32;3.05;;;36.20;67.70;;;;;;5085085;28;20031;-73
2022/07/19 11:08:54;;;;;;;5.18;3.20;;;36.30;63.10;;;;;;5080356;28;20033;-73
2022/07/19 11:11:20;;;;;;;5.47;2.72;;;36.40;64.50;;;;;;5085259;28;20357;-73
2022/07/19 11:13:51;;;;;;;5.32;2.65;;;36.50;61.40;;;;;;5082055;28;20034;-73
2022/07/19 11:16:17;;;;;;;4.13;3.00;;;36.50;65.30;;;;;;5087714;28;20024;-73
2022/07/19 11:18:44;;;;;;;6.93;2.45;;;36.60;65.70;;;;;;5078905;28;20365;-73
2022/07/19 11:21:12;;;;;;;4.55;2.70;;;36.60;66.20;;;;;;5080132;28;20031;-74
2022/07/19 11:23:39;;;;;;;6.85;2.88;;;36.80;61.80;;;;;;5084269;28;20436;-74
2022/07/19 11:26:20;;;;;;;4.95;2.58;;;36.80;60.90;;;;;;5082662;28;20489;-74
2022/07/19 11:28:47;;;;;;;3.67;2.55;;;36.90;62.30;;;;;;5094492;28;20400;-73
2022/07/19 11:31:22;;;;;;;3.95;2.17;;;37.00;62.10;;;;;;5079588;28;20020;-74
2022/07/19 11:33:49;;;;;;;5.72;2.40;;;37.20;58.00;;;;;;5082222;28;20488;-74
2022/07/19 11:36:17;;;;;;;3.15;2.15;;;37.20;63.90;;;;;;5088321;28;20017;-74
2022/07/19 11:38:54;;;;;;;4.40;2.33;;;37.40;65.20;;;;;;5090019;28;20039;-74
2022/07/19 11:41:23;;;;;;;9.20;2.58;;;37.10;57.60;;;;;;5080693;28;20052;-75
2022/07/19 11:44:07;;;;;;;3.95;2.28;;;37.20;58.30;;;;;;5085173;28;20123;-77
2022/07/19 11:46:38;;;;;;;4.35;2.50;;;37.30;57.80;;;;;;5085910;28;20016;-76
2022/07/19 11:49:05;;;;;;;4.28;2.20;;;37.30;60.40;;;;;;5081622;28;20093;-76
2022/07/19 11:51:32;;;;;;;3.13;2.20;;;37.50;61.00;;;;;;5084043;28;20099;-77
2022/07/19 11:54:00;;;;;;;9.27;2.72;;;37.50;60.40;;;;;;5087922;28;20016;-77
2022/07/19 11:56:31;;;;;;;4.47;2.47;;;37.50;60.60;;;;;;5097437;28;20028;-76
2022/07/19 11:59:03;;;;;;;5.25;3.10;;;37.60;61.30;;;;;;5085503;28;20104;-76
2022/07/19 12:01:29;;;;;;;3.92;2.47;;;37.60;60.10;;;;;;5089794;28;20431;-76
2022/07/19 12:04:00;;;;;;;5.90;2.80;;;37.70;59.10;;;;;;5086434;28;20040;-76
2022/07/19 12:06:47;;;;;;;3.95;2.42;;;37.70;59.60;;;;;;5093812;28;20366;-77
2022/07/19 12:09:16;;;;;;;6.22;2.90;;;37.80;61.20;;;;;;5082779;28;20035;-77
2022/07/19 12:11:45;;;;;;;4.93;2.75;;;37.90;57.00;;;;;;5087516;28;20492;-77
2022/07/19 12:14:23;;;;;;;6.28;2.92;;;37.90;59.70;;;;;;5085353;28;20031;-78
2022/07/19 12:16:50;;;;;;;6.50;3.20;;;37.90;60.40;;;;;;5092580;28;20148;-78
2022/07/19 12:19:20;;;;;;;11.85;3.58;;;37.90;58.20;;;;;;5090401;28;20043;-77
2022/07/19 12:21:46;;;;;;;4.40;3.40;;;37.90;60.10;;;;;;5090283;28;20024;-75
2022/07/19 12:24:23;;;;;;;8.13;2.78;;;37.90;59.10;;;;;;5084455;28;20028;-77
2022/07/19 12:26:54;;;;;;;8.13;2.78;;;37.90;57.90;;;;;;5086773;28;20029;-77
2022/07/19 12:29:36;;;;;;;8.15;3.20;;;38.00;58.60;;;;;;5084328;28;20381;-78
2022/07/19 12:32:03;;;;;;;8.35;3.10;;;38.00;59.50;;;;;;5083234;28;20103;-77
2022/07/19 12:34:40;;;;;;;4.05;2.70;;;38.00;57.80;;;;;;5086992;28;20028;-78
2022/07/19 12:37:23;;;;;;;4.63;3.03;;;38.00;59.70;;;;;;5087509;28;20058;-78
2022/07/19 12:40:13;;;;;;;3.80;3.22;;;38.10;62.10;;;;;;5086662;28;20032;-77
2022/07/19 12:42:43;;;;;;;4.28;3.08;;;38.00;57.80;;;;;;5089485;28;20032;-78
2022/07/19 12:45:12;;;;;;;5.95;3.53;;;38.10;58.90;;;;;;5084280;28;20033;-78
2022/07/19 12:47:38;;;;;;;7.95;3.33;;;38.30;57.90;;;;;;5082883;28;20093;-78
2022/07/19 12:50:05;;;;;;;3.65;3.20;;;38.20;57.30;;;;;;5087135;28;20501;-77